sensor_id;sensor_type;location;lat;lon;timestamp;pressure;altitude;pressure_sealevel;temperature;humidity
66880;BME280;53789;51.392;10.234;2023-05-20T00:00:08;98968.97;;;11.78;64.62
66880;BME280;53789;51.392;10.234;2023-05-20T00:00:28;98975.28;;;11.78;65.00
66880;BME280;53789;51.392;10.234;2023-05-20T00:00:49;98977.25;;;11.78;64.10
66880;BME280;53789;51.392;10.234;2023-05-20T00:01:09;98973.94;;;11.76;64.25
66880;BME280;53789;51.392;10.234;2023-05-20T00:01:29;98971.72;;;11.78;64.53
66880;BME280;53789;51.392;10.234;2023-05-20T00:01:49;98968.44;;;11.76;64.39
66880;BME280;53789;51.392;10.234;2023-05-20T00:02:10;98968.44;;;11.76;64.19
66880;BME280;53789;51.392;10.234;2023-05-20T00:02:30;98964.56;;;11.77;64.70
66880;BME280;53789;51.392;10.234;2023-05-20T00:02:50;98970.59;;;11.79;64.71
66880;BME280;53789;51.392;10.234;2023-05-20T00:03:10;98970.06;;;11.77;64.41
66880;BME280;53789;51.392;10.234;2023-05-20T00:03:31;98967.63;;;11.75;64.38
66880;BME280;53789;51.392;10.234;2023-05-20T00:03:51;98975.88;;;11.75;64.20
66880;BME280;53789;51.392;10.234;2023-05-20T00:04:11;98972.84;;;11.77;64.66
66880;BME280;53789;51.392;10.234;2023-05-20T00:04:32;98970.06;;;11.77;64.79
66880;BME280;53789;51.392;10.234;2023-05-20T00:04:52;98964.88;;;11.75;65.14
66880;BME280;53789;51.392;10.234;2023-05-20T00:05:12;98965.97;;;11.74;64.83
66880;BME280;53789;51.392;10.234;2023-05-20T00:05:32;98967.63;;;11.75;64.59
66880;BME280;53789;51.392;10.234;2023-05-20T00:05:53;98970.38;;;11.75;64.90
66880;BME280;53789;51.392;10.234;2023-05-20T00:06:13;98971.47;;;11.74;64.46
66880;BME280;53789;51.392;10.234;2023-05-20T00:06:33;98969.56;;;11.75;64.72
66880;BME280;53789;51.392;10.234;2023-05-20T00:06:54;98969.28;;;11.76;64.36
66880;BME280;53789;51.392;10.234;2023-05-20T00:07:14;98965.97;;;11.74;64.14
66880;BME280;53789;51.392;10.234;2023-05-20T00:07:34;98973.13;;;11.75;64.68
66880;BME280;53789;51.392;10.234;2023-05-20T00:07:54;98962.09;;;11.75;64.70
66880;BME280;53789;51.392;10.234;2023-05-20T00:08:17;98977.00;;;11.74;64.63
66880;BME280;53789;51.392;10.234;2023-05-20T00:08:38;98968.72;;;11.74;65.03
66880;BME280;53789;51.392;10.234;2023-05-20T00:08:58;98968.72;;;11.74;64.70
66880;BME280;53789;51.392;10.234;2023-05-20T00:09:18;98970.69;;;11.74;64.92
66880;BME280;53789;51.392;10.234;2023-05-20T00:09:38;98969.88;;;11.73;65.18
66880;BME280;53789;51.392;10.234;2023-05-20T00:09:59;98975.38;;;11.73;64.53
66880;BME280;53789;51.392;10.234;2023-05-20T00:10:19;98961.59;;;11.73;64.25
66880;BME280;53789;51.392;10.234;2023-05-20T00:10:39;98965.16;;;11.74;64.89
66880;BME280;53789;51.392;10.234;2023-05-20T00:11:00;98967.91;;;11.74;64.64
66880;BME280;53789;51.392;10.234;2023-05-20T00:11:20;98957.69;;;11.74;64.24
66880;BME280;53789;51.392;10.234;2023-05-20T00:11:40;98964.88;;;11.75;63.95
66880;BME280;53789;51.392;10.234;2023-05-20T00:12:00;98960.16;;;11.76;64.68
66880;BME280;53789;51.392;10.234;2023-05-20T00:12:21;98966.50;;;11.76;64.93
66880;BME280;53789;51.392;10.234;2023-05-20T00:12:41;98967.63;;;11.75;64.47
66880;BME280;53789;51.392;10.234;2023-05-20T00:13:02;98960.47;;;11.74;64.54
66880;BME280;53789;51.392;10.234;2023-05-20T00:13:22;98960.16;;;11.76;64.32
66880;BME280;53789;51.392;10.234;2023-05-20T00:13:42;98962.09;;;11.75;65.26
66880;BME280;53789;51.392;10.234;2023-05-20T00:14:03;98957.41;;;11.76;64.90
66880;BME280;53789;51.392;10.234;2023-05-20T00:14:23;98964.56;;;11.77;64.89
66880;BME280;53789;51.392;10.234;2023-05-20T00:14:43;98959.06;;;11.77;64.66
66880;BME280;53789;51.392;10.234;2023-05-20T00:15:04;98962.63;;;11.77;64.55
66880;BME280;53789;51.392;10.234;2023-05-20T00:15:25;98960.69;;;11.78;64.81
66880;BME280;53789;51.392;10.234;2023-05-20T00:15:45;98967.84;;;11.79;64.55
66880;BME280;53789;51.392;10.234;2023-05-20T00:16:05;98968.66;;;11.79;64.52
66880;BME280;53789;51.392;10.234;2023-05-20T00:16:26;98962.03;;;11.80;64.47
66880;BME280;53789;51.392;10.234;2023-05-20T00:16:46;98960.91;;;11.81;64.64
66880;BME280;53789;51.392;10.234;2023-05-20T00:17:06;98959.00;;;11.82;65.08
66880;BME280;53789;51.392;10.234;2023-05-20T00:17:27;98960.09;;;11.81;64.63
66880;BME280;53789;51.392;10.234;2023-05-20T00:17:47;98963.66;;;11.81;64.20
66880;BME280;53789;51.392;10.234;2023-05-20T00:18:07;98966.44;;;11.81;64.33
66880;BME280;53789;51.392;10.234;2023-05-20T00:18:27;98964.50;;;11.82;64.67
66880;BME280;53789;51.392;10.234;2023-05-20T00:18:48;98964.22;;;11.83;64.47
66880;BME280;53789;51.392;10.234;2023-05-20T00:19:08;98971.34;;;11.85;64.73
66880;BME280;53789;51.392;10.234;2023-05-20T00:19:28;98965.81;;;11.85;65.13
66880;BME280;53789;51.392;10.234;2023-05-20T00:19:48;98964.72;;;11.86;64.74
66880;BME280;53789;51.392;10.234;2023-05-20T00:20:09;98964.72;;;11.86;64.61
66880;BME280;53789;51.392;10.234;2023-05-20T00:20:31;98965.22;;;11.88;64.91
66880;BME280;53789;51.392;10.234;2023-05-20T00:20:51;98959.72;;;11.88;64.66
66880;BME280;53789;51.392;10.234;2023-05-20T00:21:11;98962.19;;;11.89;64.72
66880;BME280;53789;51.392;10.234;2023-05-20T00:21:32;98962.19;;;11.89;64.14
66880;BME280;53789;51.392;10.234;2023-05-20T00:21:52;98963.03;;;11.90;64.07
66880;BME280;53789;51.392;10.234;2023-05-20T00:22:12;98964.63;;;11.91;64.74
66880;BME280;53789;51.392;10.234;2023-05-20T00:22:33;98958.31;;;11.90;63.92
66880;BME280;53789;51.392;10.234;2023-05-20T00:22:53;98967.09;;;11.92;65.03
66880;BME280;53789;51.392;10.234;2023-05-20T00:23:13;98963.53;;;11.92;64.40
66880;BME280;53789;51.392;10.234;2023-05-20T00:23:33;98958.00;;;11.92;64.61
66880;BME280;53789;51.392;10.234;2023-05-20T00:23:54;98962.72;;;11.91;64.66
66880;BME280;53789;51.392;10.234;2023-05-20T00:24:15;98961.06;;;11.90;64.45
66880;BME280;53789;51.392;10.234;2023-05-20T00:24:35;98956.66;;;11.89;65.16
66880;BME280;53789;51.392;10.234;2023-05-20T00:24:55;98961.06;;;11.90;64.72
66880;BME280;53789;51.392;10.234;2023-05-20T00:25:15;98957.50;;;11.90;64.00
66880;BME280;53789;51.392;10.234;2023-05-20T00:25:36;98958.31;;;11.90;64.44
66880;BME280;53789;51.392;10.234;2023-05-20T00:25:56;98961.88;;;11.91;64.98
66880;BME280;53789;51.392;10.234;2023-05-20T00:26:17;98963.81;;;11.90;64.50
66880;BME280;53789;51.392;10.234;2023-05-20T00:26:38;98953.91;;;11.89;64.99
66880;BME280;53789;51.392;10.234;2023-05-20T00:26:58;98959.41;;;11.89;64.80
66880;BME280;53789;51.392;10.234;2023-05-20T00:27:18;98960.25;;;11.90;64.82
66880;BME280;53789;51.392;10.234;2023-05-20T00:27:41;98961.66;;;11.87;64.94
66880;BME280;53789;51.392;10.234;2023-05-20T00:28:02;98961.66;;;11.87;65.31
66880;BME280;53789;51.392;10.234;2023-05-20T00:28:22;98962.47;;;11.88;65.19
66880;BME280;53789;51.392;10.234;2023-05-20T00:28:42;98961.97;;;11.86;65.36
66880;BME280;53789;51.392;10.234;2023-05-20T00:29:02;98960.31;;;11.85;64.99
66880;BME280;53789;51.392;10.234;2023-05-20T00:29:23;98959.50;;;11.84;65.40
66880;BME280;53789;51.392;10.234;2023-05-20T00:29:43;98955.66;;;11.85;65.37
66880;BME280;53789;51.392;10.234;2023-05-20T00:30:04;98956.75;;;11.84;65.10
66880;BME280;53789;51.392;10.234;2023-05-20T00:30:25;98959.81;;;11.82;65.01
66880;BME280;53789;51.392;10.234;2023-05-20T00:30:45;98965.31;;;11.82;64.97
66880;BME280;53789;51.392;10.234;2023-05-20T00:31:05;98955.09;;;11.83;65.03
66880;BME280;53789;51.392;10.234;2023-05-20T00:31:25;98960.63;;;11.83;65.46
66880;BME280;53789;51.392;10.234;2023-05-20T00:31:46;98961.47;;;11.83;64.72
66880;BME280;53789;51.392;10.234;2023-05-20T00:32:06;98957.06;;;11.82;65.10
66880;BME280;53789;51.392;10.234;2023-05-20T00:32:27;98961.47;;;11.83;65.26
66880;BME280;53789;51.392;10.234;2023-05-20T00:32:47;98964.22;;;11.83;64.71
66880;BME280;53789;51.392;10.234;2023-05-20T00:33:07;98965.03;;;11.84;65.61
66880;BME280;53789;51.392;10.234;2023-05-20T00:33:28;98958.69;;;11.83;64.76
66880;BME280;53789;51.392;10.234;2023-05-20T00:33:48;98965.31;;;11.82;65.51
66880;BME280;53789;51.392;10.234;2023-05-20T00:34:08;98955.41;;;11.81;65.63
66880;BME280;53789;51.392;10.234;2023-05-20T00:34:28;98960.09;;;11.81;64.95
66880;BME280;53789;51.392;10.234;2023-05-20T00:34:58;98958.16;;;11.81;65.46
66880;BME280;53789;51.392;10.234;2023-05-20T00:35:19;98961.75;;;11.82;65.22
66880;BME280;53789;51.392;10.234;2023-05-20T00:35:39;98956.50;;;11.80;65.12
66880;BME280;53789;51.392;10.234;2023-05-20T00:36:00;98956.25;;;11.82;64.97
66880;BME280;53789;51.392;10.234;2023-05-20T00:36:20;98959.00;;;11.82;65.53
66880;BME280;53789;51.392;10.234;2023-05-20T00:36:40;98954.59;;;11.81;65.30
66880;BME280;53789;51.392;10.234;2023-05-20T00:37:00;98950.72;;;11.82;65.40
66880;BME280;53789;51.392;10.234;2023-05-20T00:37:21;98954.28;;;11.82;65.51
66880;BME280;53789;51.392;10.234;2023-05-20T00:37:42;98952.66;;;11.81;65.21
66880;BME280;53789;51.392;10.234;2023-05-20T00:38:02;98947.44;;;11.80;65.32
66880;BME280;53789;51.392;10.234;2023-05-20T00:38:22;98951.84;;;11.81;64.83
66880;BME280;53789;51.392;10.234;2023-05-20T00:38:43;98951.84;;;11.81;65.54
66880;BME280;53789;51.392;10.234;2023-05-20T00:39:03;98953.75;;;11.80;65.38
66880;BME280;53789;51.392;10.234;2023-05-20T00:39:23;98952.66;;;11.81;65.11
66880;BME280;53789;51.392;10.234;2023-05-20T00:39:44;98944.69;;;11.80;65.56
66880;BME280;53789;51.392;10.234;2023-05-20T00:40:04;98945.78;;;11.79;66.07
66880;BME280;53789;51.392;10.234;2023-05-20T00:40:25;98950.50;;;11.78;65.29
66880;BME280;53789;51.392;10.234;2023-05-20T00:40:45;98945.28;;;11.77;66.39
66880;BME280;53789;51.392;10.234;2023-05-20T00:41:05;98942.53;;;11.77;65.81
66880;BME280;53789;51.392;10.234;2023-05-20T00:41:26;98943.31;;;11.77;65.78
66880;BME280;53789;51.392;10.234;2023-05-20T00:41:46;98947.22;;;11.76;66.18
66880;BME280;53789;51.392;10.234;2023-05-20T00:42:07;98953.53;;;11.77;65.50
66880;BME280;53789;51.392;10.234;2023-05-20T00:42:27;98943.94;;;11.74;65.82
66880;BME280;53789;51.392;10.234;2023-05-20T00:42:48;98948.31;;;11.75;66.16
66880;BME280;53789;51.392;10.234;2023-05-20T00:43:08;98947.53;;;11.75;65.79
66880;BME280;53789;51.392;10.234;2023-05-20T00:43:28;98945.56;;;11.75;66.02
66880;BME280;53789;51.392;10.234;2023-05-20T00:43:55;98944.75;;;11.75;66.03
66880;BME280;53789;51.392;10.234;2023-05-20T00:44:15;98946.38;;;11.76;65.96
66880;BME280;53789;51.392;10.234;2023-05-20T00:44:36;98945.56;;;11.75;65.55
66880;BME280;53789;51.392;10.234;2023-05-20T00:44:56;98936.50;;;11.75;66.04
66880;BME280;53789;51.392;10.234;2023-05-20T00:45:16;98946.09;;;11.77;65.19
66880;BME280;53789;51.392;10.234;2023-05-20T00:45:37;98943.31;;;11.77;65.15
66880;BME280;53789;51.392;10.234;2023-05-20T00:45:59;98949.69;;;11.78;65.18
66880;BME280;53789;51.392;10.234;2023-05-20T00:46:21;98940.88;;;11.76;65.70
66880;BME280;53789;51.392;10.234;2023-05-20T00:46:43;98939.75;;;11.77;65.57
66880;BME280;53789;51.392;10.234;2023-05-20T00:47:04;98938.94;;;11.76;66.07
66880;BME280;53789;51.392;10.234;2023-05-20T00:47:30;98939.47;;;11.78;65.63
66880;BME280;53789;51.392;10.234;2023-05-20T00:47:51;98943.31;;;11.77;65.83
66880;BME280;53789;51.392;10.234;2023-05-20T00:48:12;98944.16;;;11.78;65.11
66880;BME280;53789;51.392;10.234;2023-05-20T00:48:39;98944.97;;;11.78;65.50
66880;BME280;53789;51.392;10.234;2023-05-20T00:49:00;98943.63;;;11.76;65.82
66880;BME280;53789;51.392;10.234;2023-05-20T00:49:20;98949.97;;;11.76;66.07
66880;BME280;53789;51.392;10.234;2023-05-20T00:49:41;98942.81;;;11.75;65.62
66880;BME280;53789;51.392;10.234;2023-05-20T00:50:02;98946.38;;;11.76;65.96
66880;BME280;53789;51.392;10.234;2023-05-20T00:50:23;98936.50;;;11.75;66.31
66880;BME280;53789;51.392;10.234;2023-05-20T00:50:43;98941.72;;;11.76;66.33
66880;BME280;53789;51.392;10.234;2023-05-20T00:51:04;98940.88;;;11.76;65.27
66880;BME280;53789;51.392;10.234;2023-05-20T00:51:24;98935.66;;;11.74;65.63
66880;BME280;53789;51.392;10.234;2023-05-20T00:51:46;98938.41;;;11.74;65.31
66880;BME280;53789;51.392;10.234;2023-05-20T00:52:07;98942.81;;;11.75;66.17
66880;BME280;53789;51.392;10.234;2023-05-20T00:52:31;98939.25;;;11.75;65.30
66880;BME280;53789;51.392;10.234;2023-05-20T00:52:51;98940.06;;;11.75;65.49
66880;BME280;53789;51.392;10.234;2023-05-20T00:53:13;98945.56;;;11.75;65.32
66880;BME280;53789;51.392;10.234;2023-05-20T00:53:35;98942.81;;;11.75;65.42
66880;BME280;53789;51.392;10.234;2023-05-20T00:53:56;98942.81;;;11.75;65.52
66880;BME280;53789;51.392;10.234;2023-05-20T00:54:17;98940.06;;;11.75;65.81
66880;BME280;53789;51.392;10.234;2023-05-20T00:54:39;98943.31;;;11.77;65.31
66880;BME280;53789;51.392;10.234;2023-05-20T00:55:00;98944.16;;;11.78;65.49
66880;BME280;53789;51.392;10.234;2023-05-20T00:55:21;98939.47;;;11.78;65.69
66880;BME280;53789;51.392;10.234;2023-05-20T00:55:41;98936.72;;;11.78;65.80
66880;BME280;53789;51.392;10.234;2023-05-20T00:56:03;98935.59;;;11.79;65.91
66880;BME280;53789;51.392;10.234;2023-05-20T00:56:24;98942.72;;;11.80;66.08
66880;BME280;53789;51.392;10.234;2023-05-20T00:56:44;98939.72;;;11.82;64.91
66880;BME280;53789;51.392;10.234;2023-05-20T00:57:06;98945.47;;;11.80;65.55
66880;BME280;53789;51.392;10.234;2023-05-20T00:57:27;98939.72;;;11.82;65.84
66880;BME280;53789;51.392;10.234;2023-05-20T00:57:49;98942.47;;;11.82;65.99
66880;BME280;53789;51.392;10.234;2023-05-20T00:58:09;98932.53;;;11.81;65.49
66880;BME280;53789;51.392;10.234;2023-05-20T00:58:30;98933.34;;;11.81;65.41
66880;BME280;53789;51.392;10.234;2023-05-20T00:58:51;98935.81;;;11.83;65.08
66880;BME280;53789;51.392;10.234;2023-05-20T00:59:11;98937.47;;;11.84;65.47
66880;BME280;53789;51.392;10.234;2023-05-20T00:59:36;98941.03;;;11.85;64.99
66880;BME280;53789;51.392;10.234;2023-05-20T00:59:57;98935.22;;;11.86;64.99
66880;BME280;53789;51.392;10.234;2023-05-20T01:00:17;98938.28;;;11.85;65.08
66880;BME280;53789;51.392;10.234;2023-05-20T01:00:38;98930.84;;;11.85;65.73
66880;BME280;53789;51.392;10.234;2023-05-20T01:00:58;98937.16;;;11.86;65.21
66880;BME280;53789;51.392;10.234;2023-05-20T01:01:18;98937.97;;;11.86;65.53
66880;BME280;53789;51.392;10.234;2023-05-20T01:01:39;98932.47;;;11.86;64.67
66880;BME280;53789;51.392;10.234;2023-05-20T01:02:00;98929.69;;;11.86;64.91
66880;BME280;53789;51.392;10.234;2023-05-20T01:02:21;98928.88;;;11.86;65.62
66880;BME280;53789;51.392;10.234;2023-05-20T01:02:41;98930.53;;;11.87;65.63
66880;BME280;53789;51.392;10.234;2023-05-20T01:03:01;98928.88;;;11.86;65.12
66880;BME280;53789;51.392;10.234;2023-05-20T01:03:22;98928.88;;;11.86;65.64
66880;BME280;53789;51.392;10.234;2023-05-20T01:03:42;98925.31;;;11.85;65.71
66880;BME280;53789;51.392;10.234;2023-05-20T01:04:03;98926.13;;;11.86;65.16
66880;BME280;53789;51.392;10.234;2023-05-20T01:04:23;98922.56;;;11.85;65.01
66880;BME280;53789;51.392;10.234;2023-05-20T01:04:44;98930.53;;;11.87;65.42
66880;BME280;53789;51.392;10.234;2023-05-20T01:05:05;98925.31;;;11.85;65.41
66880;BME280;53789;51.392;10.234;2023-05-20T01:05:25;98924.19;;;11.86;65.61
66880;BME280;53789;51.392;10.234;2023-05-20T01:05:45;98926.94;;;11.86;65.62
66880;BME280;53789;51.392;10.234;2023-05-20T01:06:06;98928.09;;;11.85;65.38
66880;BME280;53789;51.392;10.234;2023-05-20T01:06:26;98926.44;;;11.84;65.16
66880;BME280;53789;51.392;10.234;2023-05-20T01:06:46;98927.53;;;11.83;64.91
66880;BME280;53789;51.392;10.234;2023-05-20T01:07:07;98926.44;;;11.84;65.76
66880;BME280;53789;51.392;10.234;2023-05-20T01:07:27;98929.50;;;11.82;65.19
66880;BME280;53789;51.392;10.234;2023-05-20T01:07:48;98927.84;;;11.81;65.61
66880;BME280;53789;51.392;10.234;2023-05-20T01:08:08;98935.59;;;11.79;65.39
66880;BME280;53789;51.392;10.234;2023-05-20T01:08:29;98928.44;;;11.78;65.52
66880;BME280;53789;51.392;10.234;2023-05-20T01:08:49;98922.13;;;11.78;65.37
66880;BME280;53789;51.392;10.234;2023-05-20T01:09:09;98923.22;;;11.77;65.32
66880;BME280;53789;51.392;10.234;2023-05-20T01:09:31;98925.47;;;11.75;65.99
66880;BME280;53789;51.392;10.234;2023-05-20T01:09:51;98933.44;;;11.76;66.08
66880;BME280;53789;51.392;10.234;2023-05-20T01:10:12;98925.47;;;11.75;66.31
66880;BME280;53789;51.392;10.234;2023-05-20T01:10:37;98929.03;;;11.75;65.81
66880;BME280;53789;51.392;10.234;2023-05-20T01:11:08;98927.09;;;11.76;66.08
66880;BME280;53789;51.392;10.234;2023-05-20T01:11:35;98919.66;;;11.76;65.26
66880;BME280;53789;51.392;10.234;2023-05-20T01:12:45;98927.38;;;11.74;66.07
66880;BME280;53789;51.392;10.234;2023-05-20T01:13:15;98925.78;;;11.73;65.79
66880;BME280;53789;51.392;10.234;2023-05-20T01:13:46;98923.03;;;11.73;66.25
66880;BME280;53789;51.392;10.234;2023-05-20T01:14:13;98924.63;;;11.74;66.11
66880;BME280;53789;51.392;10.234;2023-05-20T01:14:58;98930.16;;;11.74;65.14
66880;BME280;53789;51.392;10.234;2023-05-20T01:15:21;98928.22;;;11.75;66.08
66880;BME280;53789;51.392;10.234;2023-05-20T01:15:45;98929.03;;;11.75;66.02
66880;BME280;53789;51.392;10.234;2023-05-20T01:16:10;98929.84;;;11.76;66.62
66880;BME280;53789;51.392;10.234;2023-05-20T01:16:31;98932.91;;;11.74;66.18
66880;BME280;53789;51.392;10.234;2023-05-20T01:16:54;98928.22;;;11.75;66.98
66880;BME280;53789;51.392;10.234;2023-05-20T01:17:18;98931.28;;;11.73;66.00
66880;BME280;53789;51.392;10.234;2023-05-20T01:17:51;98928.81;;;11.72;66.35
66880;BME280;53789;51.392;10.234;2023-05-20T01:18:15;98935.16;;;11.72;66.31
66880;BME280;53789;51.392;10.234;2023-05-20T01:18:38;98932.38;;;11.72;66.12
66880;BME280;53789;51.392;10.234;2023-05-20T01:18:58;98931.03;;;11.70;66.19
66880;BME280;53789;51.392;10.234;2023-05-20T01:19:34;98924.72;;;11.69;66.60
66880;BME280;53789;51.392;10.234;2023-05-20T01:19:55;98930.84;;;11.66;66.14
66880;BME280;53789;51.392;10.234;2023-05-20T01:20:18;98928.88;;;11.67;66.44
66880;BME280;53789;51.392;10.234;2023-05-20T01:20:40;98923.06;;;11.68;66.55
66880;BME280;53789;51.392;10.234;2023-05-20T01:21:01;98926.13;;;11.67;66.01
66880;BME280;53789;51.392;10.234;2023-05-20T01:21:22;98922.25;;;11.68;67.01
66880;BME280;53789;51.392;10.234;2023-05-20T01:21:44;98920.91;;;11.65;66.97
66880;BME280;53789;51.392;10.234;2023-05-20T01:22:08;98922.56;;;11.66;65.89
66880;BME280;53789;51.392;10.234;2023-05-20T01:22:28;98926.13;;;11.67;66.29
66880;BME280;53789;51.392;10.234;2023-05-20T01:22:54;98924.19;;;11.67;66.68
66880;BME280;53789;51.392;10.234;2023-05-20T01:23:15;98922.84;;;11.64;66.51
66880;BME280;53789;51.392;10.234;2023-05-20T01:23:40;98928.38;;;11.64;66.66
66880;BME280;53789;51.392;10.234;2023-05-20T01:24:00;98919.28;;;11.64;66.32
66880;BME280;53789;51.392;10.234;2023-05-20T01:24:21;98927.53;;;11.64;66.72
66880;BME280;53789;51.392;10.234;2023-05-20T01:24:43;98925.91;;;11.63;66.60
66880;BME280;53789;51.392;10.234;2023-05-20T01:25:04;98928.66;;;11.63;67.00
66880;BME280;53789;51.392;10.234;2023-05-20T01:25:24;98916.81;;;11.62;66.55
66880;BME280;53789;51.392;10.234;2023-05-20T01:25:44;98918.75;;;11.62;65.97
66880;BME280;53789;51.392;10.234;2023-05-20T01:26:05;98925.91;;;11.63;66.47
66880;BME280;53789;51.392;10.234;2023-05-20T01:26:26;98919.56;;;11.62;67.29
66880;BME280;53789;51.392;10.234;2023-05-20T01:26:46;98927.03;;;11.62;66.55
66880;BME280;53789;51.392;10.234;2023-05-20T01:27:11;98919.56;;;11.62;66.78
66880;BME280;53789;51.392;10.234;2023-05-20T01:27:32;98929.78;;;11.62;66.70
66880;BME280;53789;51.392;10.234;2023-05-20T01:27:54;98931.19;;;11.59;66.43
66880;BME280;53789;51.392;10.234;2023-05-20T01:28:15;98925.66;;;11.59;66.56
66880;BME280;53789;51.392;10.234;2023-05-20T01:28:36;98922.63;;;11.61;66.27
66880;BME280;53789;51.392;10.234;2023-05-20T01:28:57;98922.63;;;11.61;66.86
66880;BME280;53789;51.392;10.234;2023-05-20T01:29:17;98922.63;;;11.61;66.43
66880;BME280;53789;51.392;10.234;2023-05-20T01:29:42;98919.56;;;11.62;66.98
66880;BME280;53789;51.392;10.234;2023-05-20T01:30:02;98922.31;;;11.62;66.11
66880;BME280;53789;51.392;10.234;2023-05-20T01:30:28;98929.19;;;11.65;66.20
66880;BME280;53789;51.392;10.234;2023-05-20T01:30:53;98923.97;;;11.63;66.11
66880;BME280;53789;51.392;10.234;2023-05-20T01:31:32;98924.47;;;11.65;66.19
66880;BME280;53789;51.392;10.234;2023-05-20T01:31:56;98928.06;;;11.66;66.46
66880;BME280;53789;51.392;10.234;2023-05-20T01:32:34;98926.44;;;11.65;66.37
66880;BME280;53789;51.392;10.234;2023-05-20T01:33:09;98919.81;;;11.66;66.94
66880;BME280;53789;51.392;10.234;2023-05-20T01:33:35;98923.38;;;11.67;66.01
66880;BME280;53789;51.392;10.234;2023-05-20T01:33:58;98925.81;;;11.68;66.11
66880;BME280;53789;51.392;10.234;2023-05-20T01:34:19;98933.00;;;11.69;66.50
66880;BME280;53789;51.392;10.234;2023-05-20T01:34:40;98930.22;;;11.69;66.80
66880;BME280;53789;51.392;10.234;2023-05-20T01:35:02;98929.38;;;11.69;66.65
66880;BME280;53789;51.392;10.234;2023-05-20T01:35:24;98928.28;;;11.70;66.80
66880;BME280;53789;51.392;10.234;2023-05-20T01:35:46;98929.94;;;11.71;66.52
66880;BME280;53789;51.392;10.234;2023-05-20T01:36:07;98923.63;;;11.70;66.46
66880;BME280;53789;51.392;10.234;2023-05-20T01:36:30;98931.88;;;11.70;66.14
66880;BME280;53789;51.392;10.234;2023-05-20T01:36:53;98925.22;;;11.71;66.44
66880;BME280;53789;51.392;10.234;2023-05-20T01:37:16;98930.75;;;11.71;66.75
66880;BME280;53789;51.392;10.234;2023-05-20T01:37:39;98927.19;;;11.71;66.27
66880;BME280;53789;51.392;10.234;2023-05-20T01:38:02;98925.22;;;11.71;66.52
66880;BME280;53789;51.392;10.234;2023-05-20T01:38:24;98932.38;;;11.72;66.39
66880;BME280;53789;51.392;10.234;2023-05-20T01:38:47;98931.28;;;11.73;66.72
66880;BME280;53789;51.392;10.234;2023-05-20T01:39:08;98926.59;;;11.74;66.46
66880;BME280;53789;51.392;10.234;2023-05-20T01:39:30;98934.56;;;11.75;65.78
66880;BME280;53789;51.392;10.234;2023-05-20T01:39:52;98932.59;;;11.76;66.21
66880;BME280;53789;51.392;10.234;2023-05-20T01:40:14;98929.03;;;11.75;66.57
66880;BME280;53789;51.392;10.234;2023-05-20T01:40:36;98929.03;;;11.75;66.25
66880;BME280;53789;51.392;10.234;2023-05-20T01:40:58;98926.28;;;11.75;66.16
66880;BME280;53789;51.392;10.234;2023-05-20T01:41:23;98927.94;;;11.76;66.80
66880;BME280;53789;51.392;10.234;2023-05-20T01:41:47;98926.28;;;11.75;66.63
66880;BME280;53789;51.392;10.234;2023-05-20T01:42:10;98927.94;;;11.76;66.28
66880;BME280;53789;51.392;10.234;2023-05-20T01:42:32;98927.09;;;11.76;66.38
66880;BME280;53789;51.392;10.234;2023-05-20T01:42:54;98915.25;;;11.75;66.25
66880;BME280;53789;51.392;10.234;2023-05-20T01:43:16;98918.81;;;11.76;66.56
66880;BME280;53789;51.392;10.234;2023-05-20T01:43:38;98919.66;;;11.76;66.02
66880;BME280;53789;51.392;10.234;2023-05-20T01:43:59;98921.88;;;11.74;66.51
66880;BME280;53789;51.392;10.234;2023-05-20T01:44:20;98921.88;;;11.74;66.00
66880;BME280;53789;51.392;10.234;2023-05-20T01:44:40;98923.53;;;11.75;66.92
66880;BME280;53789;51.392;10.234;2023-05-20T01:45:02;98921.56;;;11.76;66.81
66880;BME280;53789;51.392;10.234;2023-05-20T01:45:23;98928.22;;;11.75;66.41
66880;BME280;53789;51.392;10.234;2023-05-20T01:45:44;98926.88;;;11.72;66.34
66880;BME280;53789;51.392;10.234;2023-05-20T01:46:05;98920.56;;;11.72;66.40
66880;BME280;53789;51.392;10.234;2023-05-20T01:46:26;98921.66;;;11.71;66.38
66880;BME280;53789;51.392;10.234;2023-05-20T01:46:49;98924.44;;;11.71;67.00
66880;BME280;53789;51.392;10.234;2023-05-20T01:47:09;98916.16;;;11.71;66.64
66880;BME280;53789;51.392;10.234;2023-05-20T01:47:30;98919.22;;;11.69;67.12
66880;BME280;53789;51.392;10.234;2023-05-20T01:47:50;98919.22;;;11.69;67.26
66880;BME280;53789;51.392;10.234;2023-05-20T01:48:11;98920.63;;;11.67;67.20
66880;BME280;53789;51.392;10.234;2023-05-20T01:48:32;98914.28;;;11.66;66.91
66880;BME280;53789;51.392;10.234;2023-05-20T01:48:52;98919.81;;;11.66;66.81
66880;BME280;53789;51.392;10.234;2023-05-20T01:49:12;98918.97;;;11.65;67.16
66880;BME280;53789;51.392;10.234;2023-05-20T01:49:32;98917.34;;;11.64;66.62
66880;BME280;53789;51.392;10.234;2023-05-20T01:49:53;98916.50;;;11.64;66.82
66880;BME280;53789;51.392;10.234;2023-05-20T01:50:13;98924.78;;;11.64;66.69
66880;BME280;53789;51.392;10.234;2023-05-20T01:50:33;98920.41;;;11.63;67.38
66880;BME280;53789;51.392;10.234;2023-05-20T01:50:54;98910.50;;;11.62;66.86
66880;BME280;53789;51.392;10.234;2023-05-20T01:51:14;98918.75;;;11.62;66.41
66880;BME280;53789;51.392;10.234;2023-05-20T01:51:34;98911.59;;;11.61;67.51
66880;BME280;53789;51.392;10.234;2023-05-20T01:51:55;98918.75;;;11.62;66.90
66880;BME280;53789;51.392;10.234;2023-05-20T01:52:15;98912.44;;;11.61;66.75
66880;BME280;53789;51.392;10.234;2023-05-20T01:52:36;98919.06;;;11.60;67.17
66880;BME280;53789;51.392;10.234;2023-05-20T01:52:56;98914.34;;;11.61;66.54
66880;BME280;53789;51.392;10.234;2023-05-20T01:53:16;98914.34;;;11.61;67.49